Boynton Beach, FL

8:47 AM EDT on May 26, 2015 (GMT -0400)
Princeton Place 2 | | Change Station
CLOSE
Current Station
Personal Weather Station
Location: Boynton Beach, FL
Elevation: 14 ft
Nearby Weather Stations

Elev 14 ft 26.55 °N, 80.12 °W | Updated 15 seconds ago

Mostly Cloudy
Mostly Cloudy
83.1 °F
Feels Like 89 °F
N
6.0
Wind Variable Wind from SW
Gusts 9.8 mph

Today
High -- | Low -- °F
--% Chance of Precip.
Yesterday
High -- | Low -- °F
Precip. -- in
6:28 AM 8:06 PM
First Quarter, 58% visible
Pressure 30.20 in
Visibility 10.0 miles
Clouds Scattered Clouds 2500 ft
Mostly Cloudy 5500 ft
Mostly Cloudy 25000 ft
Heat Index 89 °F
Dew Point 72 °F
Humidity 70%
Rainfall 0.00 in
Snow Depth Not available.
UV 2 out of 12
Pollen 5.30 out of 12
Air Quality Not available.
Flu Activity Sporadic
SPECI KPBI 261243Z 11014KT 10SM SCT025 BKN055 BKN250 28/23 A3020 RMK AO2 RAE00 P0000 T02780228

More Conditions Fewer Conditions

Pressure 30.20 in
Visibility 10.0 miles
Clouds Scattered Clouds 2500 ft
Mostly Cloudy 5500 ft
Mostly Cloudy 25000 ft
Heat Index 89 °F
Dew Point 72 °F
Humidity 70%
Rainfall 0.00 in
Snow Depth Not available.
UV 2 out of 12
Pollen 5.30 out of 12
Air Quality Not available.
Flu Activity Sporadic
SPECI KPBI 261243Z 11014KT 10SM SCT025 BKN055 BKN250 28/23 A3020 RMK AO2 RAE00 P0000 T02780228

More Conditions Fewer Conditions

10-Day Weather Forecast

Almanac

Astronomy

May. 26, 2015 Rise Set
Actual Time
Civil Twilight
Nautical Twilight
Astronomical Twilight
Moon
Length of Visible Light
Length of Day
Tomorrow will be .
, % of the Moon is Illuminated

Today's Extremes

State Highs State Lows

Community

WunderPhotos

Upload Photos

1,824,336 photos uploaded!

WunderBlogs® & News

Nearby

Air Quality

  Air Quality AQ Index Pollutant
Not available.

Snow Depth

Station Depth Elevation

Earthquake Activity

City Distance Mag. Time & Date
Minimum magnitude displayed is 2.5.

Coastal Water Temperatures

Place Temperature

Stations

Nearby Weather Stations

Station Location Temp. Windchill Dew Point Humidity Wind Precip. Elev Updated Type